PWSweather.com
Personal Weather Stations
Station Observations
KMIEASTT1
Tawas Bay, East Tawas, MI 48730

Tawas BayEast Tawas, MI 48730

Lat: 44.28, Lon: -83.48

Elevation: 600

Station Type: Davis VantagePro

http://www.tawasbayweather.com

High Low Average
Temperature 34.4°F1.3°C 27.9°F-2.3°C 31.3°F-0.4°C
Dew Point 31.9°F-0.1°C 17.6°F-8.0°C 27.1°F-2.7°C
Winds 18.0 mph 29.0 kmh 2.0 mph 3.2 kmh 9.0 mph SW14.5 kmh SW
Wind Gusts 30.0 mph48.3 kmh 4.0 mph6.4 kmh 15.0 mph24.1 kmh
Humidity 97% 61% 85%
Pressure 29.89 in1012.2 mb 29.61 in1002.7 mb -
Precipitation 0.00 in0.0 mm - -
Hour Temp Dew Point Humidity Winds Wind Gusts Pressure Precip Precip Rate Daily Precip Total
12:02 AM 30.9°F-0.6°C 25.5°F-3.6°C 80% 3.0 mph SSW4.8 kmh SSW 5.0 mph8.0 kmh 29.89 in1012.2 mb 0.00 in0.0 mm 0.00 in/hr0.0 mm/hr 0.00 in0.0 mm
12:16 AM 30.9°F-0.6°C 25.2°F-3.8°C 79% 4.0 mph SSW6.4 kmh SSW 6.0 mph9.7 kmh 29.88 in1011.9 mb 0.00 in0.0 mm 0.00 in/hr0.0 mm/hr 0.00 in0.0 mm
12:30 AM 30.9°F-0.6°C 25.2°F-3.8°C 79% 4.0 mph SSW6.4 kmh SSW 4.0 mph6.4 kmh 29.88 in1011.9 mb 0.00 in0.0 mm 0.00 in/hr0.0 mm/hr 0.00 in0.0 mm
12:46 AM 30.9°F-0.6°C 25.5°F-3.6°C 80% 4.0 mph SSW6.4 kmh SSW 5.0 mph8.0 kmh 29.87 in1011.5 mb 0.00 in0.0 mm 0.00 in/hr0.0 mm/hr 0.00 in0.0 mm
01:01 AM 30.9°F-0.6°C 25.5°F-3.6°C 80% 3.0 mph S4.8 kmh S 4.0 mph6.4 kmh 29.86 in1011.2 mb 0.00 in0.0 mm 0.00 in/hr0.0 mm/hr 0.00 in0.0 mm
01:16 AM 30.7°F-0.7°C 26.5°F-3.1°C 84% 2.0 mph S3.2 kmh S 5.0 mph8.0 kmh 29.85 in1010.8 mb 0.00 in0.0 mm 0.00 in/hr0.0 mm/hr 0.00 in0.0 mm
01:31 AM 30.7°F-0.7°C 26.7°F-2.9°C 85% 4.0 mph SSW6.4 kmh SSW 5.0 mph8.0 kmh 29.85 in1010.8 mb 0.00 in0.0 mm 0.00 in/hr0.0 mm/hr 0.00 in0.0 mm
01:46 AM 31.0°F-0.6°C 28.1°F-2.2°C 89% 5.0 mph S8.0 kmh S 7.0 mph11.3 kmh 29.84 in1010.5 mb 0.00 in0.0 mm 0.00 in/hr0.0 mm/hr 0.00 in0.0 mm
02:02 AM 31.1°F-0.5°C 28.2°F-2.1°C 89% 9.0 mph S14.5 kmh S 10.0 mph16.1 kmh 29.84 in1010.5 mb 0.00 in0.0 mm 0.00 in/hr0.0 mm/hr 0.00 in0.0 mm
02:16 AM 31.2°F-0.4°C 28.3°F-2.1°C 89% 6.0 mph S9.7 kmh S 8.0 mph12.9 kmh 29.83 in1010.2 mb 0.00 in0.0 mm 0.00 in/hr0.0 mm/hr 0.00 in0.0 mm
02:31 AM 31.1°F-0.5°C 28.2°F-2.1°C 89% 7.0 mph S11.3 kmh S 10.0 mph16.1 kmh 29.83 in1010.2 mb 0.00 in0.0 mm 0.00 in/hr0.0 mm/hr 0.00 in0.0 mm
02:45 AM 31.3°F-0.4°C 28.7°F-1.8°C 90% 9.0 mph S14.5 kmh S 11.0 mph17.7 kmh 29.82 in1009.8 mb 0.00 in0.0 mm 0.00 in/hr0.0 mm/hr 0.00 in0.0 mm
03:02 AM 31.1°F-0.5°C 28.5°F-1.9°C 90% 7.0 mph SSW11.3 kmh SSW 12.0 mph19.3 kmh 29.82 in1009.8 mb 0.00 in0.0 mm 0.00 in/hr0.0 mm/hr 0.00 in0.0 mm
03:15 AM 31.1°F-0.5°C 28.5°F-1.9°C 90% 9.0 mph S14.5 kmh S 13.0 mph20.9 kmh 29.82 in1009.8 mb 0.00 in0.0 mm 0.00 in/hr0.0 mm/hr 0.00 in0.0 mm
03:31 AM 31.2°F-0.4°C 28.6°F-1.9°C 90% 9.0 mph SW14.5 kmh SW 12.0 mph19.3 kmh 29.81 in1009.5 mb 0.00 in0.0 mm 0.00 in/hr0.0 mm/hr 0.00 in0.0 mm
03:45 AM 31.3°F-0.4°C 28.7°F-1.8°C 90% 10.0 mph SSW16.1 kmh SSW 13.0 mph20.9 kmh 29.82 in1009.8 mb 0.00 in0.0 mm 0.00 in/hr0.0 mm/hr 0.00 in0.0 mm
04:02 AM 31.4°F-0.3°C 28.5°F-1.9°C 89% 7.0 mph S11.3 kmh S 12.0 mph19.3 kmh 29.81 in1009.5 mb 0.00 in0.0 mm 0.00 in/hr0.0 mm/hr 0.00 in0.0 mm
04:16 AM 31.4°F-0.3°C 28.5°F-1.9°C 89% 10.0 mph SSW16.1 kmh SSW 12.0 mph19.3 kmh 29.80 in1009.1 mb 0.00 in0.0 mm 0.00 in/hr0.0 mm/hr 0.00 in0.0 mm
04:31 AM 31.5°F-0.3°C 28.4°F-2.0°C 88% 11.0 mph SW17.7 kmh SW 12.0 mph19.3 kmh 29.80 in1009.1 mb 0.00 in0.0 mm 0.00 in/hr0.0 mm/hr 0.00 in0.0 mm
04:46 AM 31.6°F-0.2°C 28.2°F-2.1°C 87% 10.0 mph SSW16.1 kmh SSW 13.0 mph20.9 kmh 29.79 in1008.8 mb 0.00 in0.0 mm 0.00 in/hr0.0 mm/hr 0.00 in0.0 mm
05:02 AM 31.5°F-0.3°C 28.4°F-2.0°C 88% 7.0 mph SW11.3 kmh SW 11.0 mph17.7 kmh 29.79 in1008.8 mb 0.00 in0.0 mm 0.00 in/hr0.0 mm/hr 0.00 in0.0 mm
05:15 AM 31.6°F-0.2°C 28.5°F-1.9°C 88% 6.0 mph SW9.7 kmh SW 8.0 mph12.9 kmh 29.78 in1008.5 mb 0.00 in0.0 mm 0.00 in/hr0.0 mm/hr 0.00 in0.0 mm
05:31 AM 31.5°F-0.3°C 28.4°F-2.0°C 88% 4.0 mph SSW6.4 kmh SSW 8.0 mph12.9 kmh 29.77 in1008.1 mb 0.00 in0.0 mm 0.00 in/hr0.0 mm/hr 0.00 in0.0 mm
05:46 AM 31.5°F-0.3°C 28.4°F-2.0°C 88% 5.0 mph SSW8.0 kmh SSW 7.0 mph11.3 kmh 29.76 in1007.8 mb 0.00 in0.0 mm 0.00 in/hr0.0 mm/hr 0.00 in0.0 mm
06:01 AM 31.6°F-0.2°C 28.7°F-1.8°C 89% 9.0 mph S14.5 kmh S 10.0 mph16.1 kmh 29.75 in1007.5 mb 0.00 in0.0 mm 0.00 in/hr0.0 mm/hr 0.00 in0.0 mm
06:15 AM 31.4°F-0.3°C 28.8°F-1.8°C 90% 8.0 mph S12.9 kmh S 12.0 mph19.3 kmh 29.74 in1007.1 mb 0.00 in0.0 mm 0.00 in/hr0.0 mm/hr 0.00 in0.0 mm
06:30 AM 31.4°F-0.3°C 28.5°F-1.9°C 89% 12.0 mph S19.3 kmh S 17.0 mph27.4 kmh 29.74 in1007.1 mb 0.00 in0.0 mm 0.00 in/hr0.0 mm/hr 0.00 in0.0 mm
06:46 AM 31.3°F-0.4°C 28.4°F-2.0°C 89% 12.0 mph S19.3 kmh S 15.0 mph24.1 kmh 29.73 in1006.8 mb 0.00 in0.0 mm 0.00 in/hr0.0 mm/hr 0.00 in0.0 mm
07:02 AM 31.5°F-0.3°C 28.6°F-1.9°C 89% 11.0 mph S17.7 kmh S 16.0 mph25.7 kmh 29.72 in1006.4 mb 0.00 in0.0 mm 0.00 in/hr0.0 mm/hr 0.00 in0.0 mm
07:16 AM 31.5°F-0.3°C 29.2°F-1.6°C 91% 10.0 mph SSW16.1 kmh SSW 18.0 mph29.0 kmh 29.71 in1006.1 mb 0.00 in0.0 mm 0.00 in/hr0.0 mm/hr 0.00 in0.0 mm
07:31 AM 31.0°F-0.6°C 29.5°F-1.4°C 94% 12.0 mph S19.3 kmh S 17.0 mph27.4 kmh 29.71 in1006.1 mb 0.00 in0.0 mm 0.00 in/hr0.0 mm/hr 0.00 in0.0 mm
07:46 AM 31.2°F-0.4°C 29.7°F-1.3°C 94% 14.0 mph SSW22.5 kmh SSW 19.0 mph30.6 kmh 29.70 in1005.8 mb 0.00 in0.0 mm 0.00 in/hr0.0 mm/hr 0.00 in0.0 mm
08:02 AM 31.2°F-0.4°C 29.9°F-1.2°C 95% 16.0 mph SSW25.7 kmh SSW 18.0 mph29.0 kmh 29.69 in1005.4 mb 0.00 in0.0 mm 0.00 in/hr0.0 mm/hr 0.00 in0.0 mm
08:16 AM 31.2°F-0.4°C 29.9°F-1.2°C 95% 17.0 mph S27.4 kmh S 22.0 mph35.4 kmh 29.69 in1005.4 mb 0.00 in0.0 mm 0.00 in/hr0.0 mm/hr 0.00 in0.0 mm
08:31 AM 31.2°F-0.4°C 30.2°F-1.0°C 96% 11.0 mph S17.7 kmh S 19.0 mph30.6 kmh 29.69 in1005.4 mb 0.00 in0.0 mm 0.00 in/hr0.0 mm/hr 0.00 in0.0 mm
08:46 AM 31.3°F-0.4°C 30.3°F-0.9°C 96% 16.0 mph SSW25.7 kmh SSW 19.0 mph30.6 kmh 29.68 in1005.1 mb 0.00 in0.0 mm 0.00 in/hr0.0 mm/hr 0.00 in0.0 mm
09:01 AM 31.3°F-0.4°C 30.6°F-0.8°C 97% 13.0 mph S20.9 kmh S 19.0 mph30.6 kmh 29.67 in1004.7 mb 0.00 in0.0 mm 0.00 in/hr0.0 mm/hr 0.00 in0.0 mm
09:16 AM 31.4°F-0.3°C 30.7°F-0.7°C 97% 15.0 mph S24.1 kmh S 20.0 mph32.2 kmh 29.66 in1004.4 mb 0.00 in0.0 mm 0.00 in/hr0.0 mm/hr 0.00 in0.0 mm
09:31 AM 31.4°F-0.3°C 30.7°F-0.7°C 97% 13.0 mph S20.9 kmh S 17.0 mph27.4 kmh 29.65 in1004.1 mb 0.00 in0.0 mm 0.00 in/hr0.0 mm/hr 0.00 in0.0 mm
09:46 AM 31.5°F-0.3°C 30.8°F-0.7°C 97% 18.0 mph S29.0 kmh S 18.0 mph29.0 kmh 29.64 in1003.7 mb 0.00 in0.0 mm 0.00 in/hr0.0 mm/hr 0.00 in0.0 mm
10:02 AM 31.6°F-0.2°C 30.9°F-0.6°C 97% 13.0 mph SSW20.9 kmh SSW 18.0 mph29.0 kmh 29.64 in1003.7 mb 0.00 in0.0 mm 0.00 in/hr0.0 mm/hr 0.00 in0.0 mm
10:16 AM 31.7°F-0.2°C 31.0°F-0.6°C 97% 12.0 mph SSW19.3 kmh SSW 17.0 mph27.4 kmh 29.63 in1003.4 mb 0.00 in0.0 mm 0.00 in/hr0.0 mm/hr 0.00 in0.0 mm
10:31 AM 31.8°F-0.1°C 31.1°F-0.5°C 97% 10.0 mph SSW16.1 kmh SSW 16.0 mph25.7 kmh 29.62 in1003.0 mb 0.00 in0.0 mm 0.00 in/hr0.0 mm/hr 0.00 in0.0 mm
10:46 AM 32.0°F0.0°C 31.3°F-0.4°C 97% 9.0 mph SW14.5 kmh SW 14.0 mph22.5 kmh 29.62 in1003.0 mb 0.00 in0.0 mm 0.00 in/hr0.0 mm/hr 0.00 in0.0 mm
11:01 AM 32.1°F0.1°C 31.4°F-0.3°C 97% 7.0 mph SSW11.3 kmh SSW 13.0 mph20.9 kmh 29.62 in1003.0 mb 0.00 in0.0 mm 0.00 in/hr0.0 mm/hr 0.00 in0.0 mm
11:16 AM 32.1°F0.1°C 31.4°F-0.3°C 97% 8.0 mph SW12.9 kmh SW 12.0 mph19.3 kmh 29.62 in1003.0 mb 0.00 in0.0 mm 0.00 in/hr0.0 mm/hr 0.00 in0.0 mm
11:31 AM 32.2°F0.1°C 31.5°F-0.3°C 97% 8.0 mph SW12.9 kmh SW 10.0 mph16.1 kmh 29.62 in1003.0 mb 0.00 in0.0 mm 0.00 in/hr0.0 mm/hr 0.00 in0.0 mm
11:46 AM 32.2°F0.1°C 31.5°F-0.3°C 97% 6.0 mph SW9.7 kmh SW 8.0 mph12.9 kmh 29.61 in1002.7 mb 0.00 in0.0 mm 0.00 in/hr0.0 mm/hr 0.00 in0.0 mm
12:01 PM 32.2°F0.1°C 31.5°F-0.3°C 97% 6.0 mph WSW9.7 kmh WSW 8.0 mph12.9 kmh 29.61 in1002.7 mb 0.00 in0.0 mm 0.00 in/hr0.0 mm/hr 0.00 in0.0 mm
12:16 PM 32.7°F0.4°C 31.9°F-0.1°C 97% 9.0 mph NW14.5 kmh NW 19.0 mph30.6 kmh 29.61 in1002.7 mb 0.00 in0.0 mm 0.00 in/hr0.0 mm/hr 0.00 in0.0 mm
12:30 PM 32.3°F0.2°C 31.0°F-0.6°C 95% 11.0 mph WNW17.7 kmh WNW 24.0 mph38.6 kmh 29.64 in1003.7 mb 0.00 in0.0 mm 0.00 in/hr0.0 mm/hr 0.00 in0.0 mm
12:46 PM 32.3°F0.2°C 30.5°F-0.8°C 93% 5.0 mph NNW8.0 kmh NNW 16.0 mph25.7 kmh 29.65 in1004.1 mb 0.00 in0.0 mm 0.00 in/hr0.0 mm/hr 0.00 in0.0 mm
01:02 PM 32.1°F0.1°C 30.3°F-0.9°C 93% 5.0 mph NW8.0 kmh NW 12.0 mph19.3 kmh 29.66 in1004.4 mb 0.00 in0.0 mm 0.00 in/hr0.0 mm/hr 0.00 in0.0 mm
01:17 PM 32.3°F0.2°C 30.5°F-0.8°C 93% 4.0 mph NW6.4 kmh NW 12.0 mph19.3 kmh 29.67 in1004.7 mb 0.00 in0.0 mm 0.00 in/hr0.0 mm/hr 0.00 in0.0 mm
01:31 PM 32.7°F0.4°C 29.6°F-1.3°C 88% 9.0 mph NW14.5 kmh NW 17.0 mph27.4 kmh 29.68 in1005.1 mb 0.03 in0.8 mm 0.13 in/hr3.3 mm/hr 0.03 in0.8 mm
01:45 PM 33.1°F0.6°C 28.5°F-1.9°C 83% 7.0 mph NW11.3 kmh NW 20.0 mph32.2 kmh 29.68 in1005.1 mb 0.03 in0.8 mm 0.00 in/hr0.0 mm/hr 0.03 in0.8 mm
02:02 PM 34.4°F1.3°C 27.6°F-2.4°C 76% 16.0 mph WSW25.7 kmh WSW 21.0 mph33.8 kmh 29.69 in1005.4 mb 0.03 in0.8 mm 0.00 in/hr0.0 mm/hr 0.03 in0.8 mm
02:16 PM 34.1°F1.2°C 27.0°F-2.8°C 75% 6.0 mph WNW9.7 kmh WNW 13.0 mph20.9 kmh 29.70 in1005.8 mb 0.03 in0.8 mm 0.00 in/hr0.0 mm/hr 0.03 in0.8 mm
02:31 PM 34.0°F1.1°C 24.6°F-4.1°C 68% 14.0 mph W22.5 kmh W 19.0 mph30.6 kmh 29.71 in1006.1 mb 0.00 in0.0 mm 0.00 in/hr0.0 mm/hr 0.03 in0.8 mm
02:46 PM 34.2°F1.2°C 24.4°F-4.2°C 67% 5.0 mph NW8.0 kmh NW 21.0 mph33.8 kmh 29.72 in1006.4 mb 0.00 in0.0 mm 0.00 in/hr0.0 mm/hr 0.03 in0.8 mm
03:02 PM 33.5°F0.8°C 23.7°F-4.6°C 67% 8.0 mph W12.9 kmh W 21.0 mph33.8 kmh 29.73 in1006.8 mb 0.00 in0.0 mm 0.00 in/hr0.0 mm/hr 0.03 in0.8 mm
03:16 PM 32.6°F0.3°C 22.9°F-5.1°C 67% 6.0 mph W9.7 kmh W 22.0 mph35.4 kmh 29.75 in1007.5 mb 0.00 in0.0 mm 0.00 in/hr0.0 mm/hr 0.03 in0.8 mm
03:31 PM 31.7°F-0.2°C 21.3°F-5.9°C 65% 18.0 mph WSW29.0 kmh WSW 30.0 mph48.3 kmh 29.76 in1007.8 mb 0.00 in0.0 mm 0.00 in/hr0.0 mm/hr 0.03 in0.8 mm
03:46 PM 30.8°F-0.7°C 20.8°F-6.2°C 66% 8.0 mph W12.9 kmh W 25.0 mph40.2 kmh 29.78 in1008.5 mb 0.00 in0.0 mm 0.00 in/hr0.0 mm/hr 0.03 in0.8 mm
04:02 PM 30.1°F-1.1°C 19.4°F-7.0°C 64% 12.0 mph W19.3 kmh W 25.0 mph40.2 kmh 29.79 in1008.8 mb 0.00 in0.0 mm 0.00 in/hr0.0 mm/hr 0.03 in0.8 mm
04:17 PM 30.0°F-1.1°C 19.7°F-6.8°C 65% 12.0 mph NW19.3 kmh NW 19.0 mph30.6 kmh 29.80 in1009.1 mb 0.00 in0.0 mm 0.00 in/hr0.0 mm/hr 0.03 in0.8 mm
04:31 PM 29.6°F-1.3°C 17.8°F-7.9°C 61% 10.0 mph W16.1 kmh W 26.0 mph41.8 kmh 29.81 in1009.5 mb 0.00 in0.0 mm 0.00 in/hr0.0 mm/hr 0.03 in0.8 mm
04:46 PM 29.3°F-1.5°C 17.9°F-7.8°C 62% 18.0 mph NW29.0 kmh NW 20.0 mph32.2 kmh 29.83 in1010.2 mb 0.00 in0.0 mm 0.00 in/hr0.0 mm/hr 0.03 in0.8 mm
05:01 PM 29.3°F-1.5°C 18.3°F-7.6°C 63% 10.0 mph NW16.1 kmh NW 22.0 mph35.4 kmh 29.83 in1010.2 mb 0.00 in0.0 mm 0.00 in/hr0.0 mm/hr 0.03 in0.8 mm
05:16 PM 29.0°F-1.7°C 18.7°F-7.4°C 65% 15.0 mph WSW24.1 kmh WSW 20.0 mph32.2 kmh 29.84 in1010.5 mb 0.00 in0.0 mm 0.00 in/hr0.0 mm/hr 0.03 in0.8 mm
05:31 PM 29.0°F-1.7°C 17.6°F-8.0°C 62% 11.0 mph WSW17.7 kmh WSW 23.0 mph37.0 kmh 29.85 in1010.8 mb 0.00 in0.0 mm 0.00 in/hr0.0 mm/hr 0.03 in0.8 mm
05:46 PM 28.4°F-2.0°C 18.5°F-7.5°C 66% 11.0 mph WSW17.7 kmh WSW 14.0 mph22.5 kmh 29.87 in1011.5 mb 0.00 in0.0 mm 0.00 in/hr0.0 mm/hr 0.03 in0.8 mm
06:02 PM 28.3°F-2.1°C 19.1°F-7.2°C 68% 8.0 mph WNW12.9 kmh WNW 16.0 mph25.7 kmh 29.87 in1011.5 mb 0.00 in0.0 mm 0.00 in/hr0.0 mm/hr 0.03 in0.8 mm
06:15 PM 28.4°F-2.0°C 20.2°F-6.6°C 71% 13.0 mph WSW20.9 kmh WSW 17.0 mph27.4 kmh 29.88 in1011.9 mb 0.00 in0.0 mm 0.00 in/hr0.0 mm/hr 0.03 in0.8 mm
06:31 PM 27.9°F-2.3°C 21.3°F-5.9°C 76% 7.0 mph WNW11.3 kmh WNW 16.0 mph25.7 kmh 29.89 in1012.2 mb 0.00 in0.0 mm 0.00 in/hr0.0 mm/hr 0.03 in0.8 mm
06:46 PM 27.8°F-2.3°C 21.5°F-5.8°C 77% 9.0 mph WNW14.5 kmh WNW 18.0 mph29.0 kmh 29.90 in1012.5 mb 0.00 in0.0 mm 0.00 in/hr0.0 mm/hr 0.03 in0.8 mm
07:02 PM 27.6°F-2.4°C 20.1°F-6.6°C 73% 18.0 mph WSW29.0 kmh WSW 24.0 mph38.6 kmh 29.91 in1012.9 mb 0.00 in0.0 mm 0.00 in/hr0.0 mm/hr 0.03 in0.8 mm
07:15 PM 27.5°F-2.5°C 20.0°F-6.7°C 73% 15.0 mph SW24.1 kmh SW 15.0 mph24.1 kmh 29.91 in1012.9 mb 0.00 in0.0 mm 0.00 in/hr0.0 mm/hr 0.03 in0.8 mm
07:31 PM 27.2°F-2.7°C 20.7°F-6.3°C 76% 11.0 mph WSW17.7 kmh WSW 15.0 mph24.1 kmh 29.92 in1013.2 mb 0.00 in0.0 mm 0.00 in/hr0.0 mm/hr 0.03 in0.8 mm
07:46 PM 27.1°F-2.7°C 21.2°F-6.0°C 78% 15.0 mph WSW24.1 kmh WSW 23.0 mph37.0 kmh 29.92 in1013.2 mb 0.00 in0.0 mm 0.00 in/hr0.0 mm/hr 0.03 in0.8 mm
08:02 PM 26.9°F-2.8°C 21.3°F-5.9°C 79% 16.0 mph SW25.7 kmh SW 22.0 mph35.4 kmh 29.93 in1013.5 mb 0.00 in0.0 mm 0.00 in/hr0.0 mm/hr 0.03 in0.8 mm
08:15 PM 26.9°F-2.8°C 21.6°F-5.8°C 80% 8.0 mph WSW12.9 kmh WSW 16.0 mph25.7 kmh 29.94 in1013.9 mb 0.00 in0.0 mm 0.00 in/hr0.0 mm/hr 0.03 in0.8 mm
08:31 PM 26.9°F-2.8°C 21.6°F-5.8°C 80% 12.0 mph WSW19.3 kmh WSW 19.0 mph30.6 kmh 29.94 in1013.9 mb 0.00 in0.0 mm 0.00 in/hr0.0 mm/hr 0.03 in0.8 mm
08:45 PM 27.2°F-2.7°C 21.3°F-5.9°C 78% 14.0 mph W22.5 kmh W 22.0 mph35.4 kmh 29.94 in1013.9 mb 0.00 in0.0 mm 0.00 in/hr0.0 mm/hr 0.03 in0.8 mm
09:02 PM 27.4°F-2.6°C 21.5°F-5.8°C 78% 13.0 mph WSW20.9 kmh WSW 20.0 mph32.2 kmh 29.94 in1013.9 mb 0.00 in0.0 mm 0.00 in/hr0.0 mm/hr 0.03 in0.8 mm
09:15 PM 27.3°F-2.6°C 21.4°F-5.9°C 78% 9.0 mph WSW14.5 kmh WSW 19.0 mph30.6 kmh 29.94 in1013.9 mb 0.00 in0.0 mm 0.00 in/hr0.0 mm/hr 0.03 in0.8 mm
09:30 PM 27.5°F-2.5°C 20.9°F-6.2°C 76% 10.0 mph WSW16.1 kmh WSW 21.0 mph33.8 kmh 29.94 in1013.9 mb 0.00 in0.0 mm 0.00 in/hr0.0 mm/hr 0.03 in0.8 mm
09:46 PM 27.4°F-2.6°C 21.2°F-6.0°C 77% 13.0 mph WSW20.9 kmh WSW 19.0 mph30.6 kmh 29.94 in1013.9 mb 0.00 in0.0 mm 0.00 in/hr0.0 mm/hr 0.03 in0.8 mm
10:02 PM 27.1°F-2.7°C 21.2°F-6.0°C 78% 9.0 mph WSW14.5 kmh WSW 17.0 mph27.4 kmh 29.94 in1013.9 mb 0.00 in0.0 mm 0.00 in/hr0.0 mm/hr 0.03 in0.8 mm
10:16 PM 27.3°F-2.6°C 20.8°F-6.2°C 76% 9.0 mph WSW14.5 kmh WSW 19.0 mph30.6 kmh 29.94 in1013.9 mb 0.00 in0.0 mm 0.00 in/hr0.0 mm/hr 0.03 in0.8 mm
10:31 PM 27.5°F-2.5°C 20.9°F-6.2°C 76% 14.0 mph WSW22.5 kmh WSW 19.0 mph30.6 kmh 29.94 in1013.9 mb 0.00 in0.0 mm 0.00 in/hr0.0 mm/hr 0.03 in0.8 mm
10:45 PM 27.4°F-2.6°C 20.5°F-6.4°C 75% 10.0 mph W16.1 kmh W 16.0 mph25.7 kmh 29.94 in1013.9 mb 0.00 in0.0 mm 0.00 in/hr0.0 mm/hr 0.03 in0.8 mm
11:02 PM 27.2°F-2.7°C 20.3°F-6.5°C 75% 13.0 mph WSW20.9 kmh WSW 23.0 mph37.0 kmh 29.94 in1013.9 mb 0.00 in0.0 mm 0.00 in/hr0.0 mm/hr 0.03 in0.8 mm
11:31 PM 26.6°F-3.0°C 20.1°F-6.6°C 76% 14.0 mph SW22.5 kmh SW 17.0 mph27.4 kmh 29.94 in1013.9 mb 0.00 in0.0 mm 0.00 in/hr0.0 mm/hr 0.03 in0.8 mm
11:46 PM 26.6°F-3.0°C 19.8°F-6.8°C 75% 15.0 mph WSW24.1 kmh WSW 17.0 mph27.4 kmh 29.95 in1014.2 mb 0.00 in0.0 mm 0.00 in/hr0.0 mm/hr 0.03 in0.8 mm